Henry Cenac — WDH8989 — position and weather

sailwx.info

Track history (hours):
 
Tides and Currents Weather Stations Pressure Air Temp Water Temp Dewpoint Dewpoint Depression Visibility Wind Speed Wind Dir Waves Ship Positions

Henry Cenac

Owner: Cenac Marine Services, Houma, LA. More information available from US FCC via Universal Licensing System and Coast Guard Vessel Documentation Center.

Last reported at 2017-Nov-15 16:12 UTC. Time now 2017-Nov-21 10:20 UTC.
Position N 29°32' W 094°54'.

Length 22 m; draft 3 m.

Type: Tug. MMSI: 367663570.

Date/timePositionNaut miles runAvg speedWind from/ knotsBaromVisibWave heightAir tempDewpointWater temp
2017-Nov-15 16:12N 29°32' W 094°54'1 7.0
2017-Nov-15 16:01N 29°33' W 094°55'3 6.9
2017-Nov-15 15:30N 29°36' W 094°57'3 6.9
2017-Nov-15 15:00N 29°39' W 094°58'3 7.0
2017-Nov-15 14:31N 29°42' W 095°00'3 6.0
2017-Nov-15 14:01N 29°44' W 095°03'3 1.1
2017-Nov-15 11:35N 29°46' W 095°05'1 5.7
2017-Nov-15 11:22N 29°45' W 095°06'2 5.3
2017-Nov-15 11:00N 29°44' W 095°08'1 1.3
2017-Nov-15 10:00N 29°44' W 095°10'0 0.0
2017-Nov-15 03:24N 29°44' W 095°10'1 0.0
2017-Nov-14 12:22N 29°44' W 095°09'5 4.6
2017-Nov-14 11:22N 29°45' W 095°04'2 4.5
2017-Nov-14 10:54N 29°44' W 095°02'2 5.2
2017-Nov-14 10:30N 29°42' W 095°00'3 6.3
2017-Nov-14 10:00N 29°40' W 094°58'3 6.5
2017-Nov-14 09:30N 29°36' W 094°57'3 6.7
2017-Nov-14 09:00N 29°34' W 094°55'  
2017-Nov-05 23:26N 29°44' W 095°14'0 0.0
2017-Nov-05 22:53N 29°44' W 095°14'0 0.0
2017-Nov-05 22:23N 29°44' W 095°14'0 0.0
2017-Nov-05 21:59N 29°44' W 095°14'0 0.0
2017-Nov-05 21:26N 29°44' W 095°14'0 0.0
2017-Nov-05 19:08N 29°44' W 095°14'0 0.0
2017-Nov-05 18:02N 29°44' W 095°14'0 0.0
2017-Nov-05 16:44N 29°44' W 095°14'0 0.0
2017-Nov-05 16:23N 29°44' W 095°14'  
Track history (hours):
 
Tides and Currents Weather Stations Pressure Air Temp Water Temp Dewpoint Dewpoint Depression Visibility Wind Speed Wind Dir Waves Ship Positions

Henry Cenac

Owner: Cenac Marine Services, Houma, LA. More information available from US FCC via Universal Licensing System and Coast Guard Vessel Documentation Center.

Last reported at 2017-Nov-15 16:12 UTC. Time now 2017-Nov-21 10:20 UTC.
Position N 29°32' W 094°54'.

Length 22 m; draft 3 m.

Type: Tug. MMSI: 367663570.

Date/timePositionNaut miles runAvg speedWind from/ knotsBaromVisibWave heightAir tempDewpointWater temp
2017-Nov-15 16:12N 29°32' W 094°54'1 7.0
2017-Nov-15 16:01N 29°33' W 094°55'3 6.9
2017-Nov-15 15:30N 29°36' W 094°57'3 6.9
2017-Nov-15 15:00N 29°39' W 094°58'3 7.0
2017-Nov-15 14:31N 29°42' W 095°00'3 6.0
2017-Nov-15 14:01N 29°44' W 095°03'3 1.1
2017-Nov-15 11:35N 29°46' W 095°05'1 5.7
2017-Nov-15 11:22N 29°45' W 095°06'2 5.3
2017-Nov-15 11:00N 29°44' W 095°08'1 1.3
2017-Nov-15 10:00N 29°44' W 095°10'0 0.0
2017-Nov-15 03:24N 29°44' W 095°10'1 0.0
2017-Nov-14 12:22N 29°44' W 095°09'5 4.6
2017-Nov-14 11:22N 29°45' W 095°04'2 4.5
2017-Nov-14 10:54N 29°44' W 095°02'2 5.2
2017-Nov-14 10:30N 29°42' W 095°00'3 6.3
2017-Nov-14 10:00N 29°40' W 094°58'3 6.5
2017-Nov-14 09:30N 29°36' W 094°57'3 6.7
2017-Nov-14 09:00N 29°34' W 094°55'  
2017-Nov-05 23:26N 29°44' W 095°14'0 0.0
2017-Nov-05 22:53N 29°44' W 095°14'0 0.0
2017-Nov-05 22:23N 29°44' W 095°14'0 0.0
2017-Nov-05 21:59N 29°44' W 095°14'0 0.0
2017-Nov-05 21:26N 29°44' W 095°14'0 0.0
2017-Nov-05 19:08N 29°44' W 095°14'0 0.0
2017-Nov-05 18:02N 29°44' W 095°14'0 0.0
2017-Nov-05 16:44N 29°44' W 095°14'0 0.0
2017-Nov-05 16:23N 29°44' W 095°14'  

Dump ship's entire track history